sensor_id;sensor_type;location;lat;lon;timestamp;pressure;altitude;pressure_sealevel;temperature;humidity
6859;BME280;3468;42.824;23.240;2024-02-15T00:00:58;67801.41;;;3.32;95.42
6859;BME280;3468;42.824;23.240;2024-02-15T00:03:25;67812.00;;;3.33;96.11
6859;BME280;3468;42.824;23.240;2024-02-15T00:05:52;67796.06;;;3.30;96.49
6859;BME280;3468;42.824;23.240;2024-02-15T00:08:20;67696.63;;;2.89;96.46
6859;BME280;3468;42.824;23.240;2024-02-15T00:10:47;67789.56;;;3.27;96.00
6859;BME280;3468;42.824;23.240;2024-02-15T00:13:14;67781.47;;;3.26;95.43
6859;BME280;3468;42.824;23.240;2024-02-15T00:15:41;67807.41;;;3.29;96.68
6859;BME280;3468;42.824;23.240;2024-02-15T00:18:08;67827.22;;;3.31;95.93
6859;BME280;3468;42.824;23.240;2024-02-15T00:20:34;67791.06;;;3.30;96.47
6859;BME280;3468;42.824;23.240;2024-02-15T00:23:01;67773.53;;;3.30;96.10
6859;BME280;3468;42.824;23.240;2024-02-15T00:25:29;67781.75;;;3.35;95.70
6859;BME280;3468;42.824;23.240;2024-02-15T00:27:56;67832.59;;;3.33;96.13
6859;BME280;3468;42.824;23.240;2024-02-15T00:30:24;67812.97;;;3.29;96.59
6859;BME280;3468;42.824;23.240;2024-02-15T00:32:52;67809.69;;;3.31;97.58
6859;BME280;3468;42.824;23.240;2024-02-15T00:35:19;67769.09;;;3.13;97.48
6859;BME280;3468;42.824;23.240;2024-02-15T00:37:46;67812.94;;;3.36;97.67
6859;BME280;3468;42.824;23.240;2024-02-15T00:40:12;67797.69;;;3.38;99.09
6859;BME280;3468;42.824;23.240;2024-02-15T00:42:40;67829.09;;;3.37;98.21
6859;BME280;3468;42.824;23.240;2024-02-15T00:45:07;67794.78;;;3.42;97.12
6859;BME280;3468;42.824;23.240;2024-02-15T00:47:36;67776.25;;;3.45;98.11
6859;BME280;3468;42.824;23.240;2024-02-15T00:50:03;67788.19;;;3.45;98.07
6859;BME280;3468;42.824;23.240;2024-02-15T00:52:30;67809.72;;;3.48;97.39
6859;BME280;3468;42.824;23.240;2024-02-15T00:54:57;67801.84;;;3.46;98.17
6859;BME280;3468;42.824;23.240;2024-02-15T00:57:24;67805.28;;;3.49;96.84
6859;BME280;3468;42.824;23.240;2024-02-15T00:59:52;67829.72;;;3.48;97.97
6859;BME280;3468;42.824;23.240;2024-02-15T01:02:18;67798.97;;;3.43;96.56
6859;BME280;3468;42.824;23.240;2024-02-15T01:04:45;67807.13;;;3.37;96.22
6859;BME280;3468;42.824;23.240;2024-02-15T01:07:12;67811.03;;;3.54;96.75
6859;BME280;3468;42.824;23.240;2024-02-15T01:09:38;67822.16;;;3.55;95.35
6859;BME280;3468;42.824;23.240;2024-02-15T01:12:06;67867.94;;;3.60;96.05
6859;BME280;3468;42.824;23.240;2024-02-15T01:14:32;67831.91;;;3.63;96.05
6859;BME280;3468;42.824;23.240;2024-02-15T01:17:01;67788.50;;;3.13;97.12
6859;BME280;3468;42.824;23.240;2024-02-15T01:19:28;67819.75;;;3.66;96.89
6859;BME280;3468;42.824;23.240;2024-02-15T01:21:54;67812.66;;;3.44;97.79
6859;BME280;3468;42.824;23.240;2024-02-15T01:24:21;67841.84;;;3.69;97.27
6859;BME280;3468;42.824;23.240;2024-02-15T01:26:50;67860.94;;;3.67;96.38
6859;BME280;3468;42.824;23.240;2024-02-15T01:29:17;67842.28;;;3.66;96.35
6859;BME280;3468;42.824;23.240;2024-02-15T01:31:43;67899.88;;;3.66;95.73
6859;BME280;3468;42.824;23.240;2024-02-15T01:34:12;67904.28;;;3.65;96.59
6859;BME280;3468;42.824;23.240;2024-02-15T01:36:39;67865.94;;;3.67;96.09
6859;BME280;3468;42.824;23.240;2024-02-15T01:39:05;67804.72;;;3.66;96.38
6859;BME280;3468;42.824;23.240;2024-02-15T01:41:32;67811.44;;;3.67;97.24
6859;BME280;3468;42.824;23.240;2024-02-15T01:43:59;67811.88;;;3.63;96.72
6859;BME280;3468;42.824;23.240;2024-02-15T01:46:27;67859.09;;;3.61;98.04
6859;BME280;3468;42.824;23.240;2024-02-15T01:48:55;67832.69;;;3.62;97.50
6859;BME280;3468;42.824;23.240;2024-02-15T01:51:25;67842.34;;;3.59;95.87
6859;BME280;3468;42.824;23.240;2024-02-15T01:53:53;67821.94;;;3.57;95.42
6859;BME280;3468;42.824;23.240;2024-02-15T01:56:19;67850.63;;;3.58;95.14
6859;BME280;3468;42.824;23.240;2024-02-15T01:58:49;67824.44;;;3.57;95.75
6859;BME280;3468;42.824;23.240;2024-02-15T02:01:16;67814.03;;;3.61;95.26
6859;BME280;3468;42.824;23.240;2024-02-15T02:03:43;67797.50;;;3.57;95.74
6859;BME280;3468;42.824;23.240;2024-02-15T02:06:10;67796.56;;;3.54;96.19
6859;BME280;3468;42.824;23.240;2024-02-15T02:08:39;67795.13;;;3.44;97.03
6859;BME280;3468;42.824;23.240;2024-02-15T02:11:06;67841.19;;;3.58;96.27
6859;BME280;3468;42.824;23.240;2024-02-15T02:13:33;67814.66;;;3.55;95.43
6859;BME280;3468;42.824;23.240;2024-02-15T02:16:00;67840.63;;;3.58;95.46
6859;BME280;3468;42.824;23.240;2024-02-15T02:18:27;67819.66;;;3.55;94.07
6859;BME280;3468;42.824;23.240;2024-02-15T02:20:54;67810.38;;;3.60;93.27
6859;BME280;3468;42.824;23.240;2024-02-15T02:23:25;67813.59;;;3.65;93.38
6859;BME280;3468;42.824;23.240;2024-02-15T02:25:54;67816.31;;;3.63;92.75
6859;BME280;3468;42.824;23.240;2024-02-15T02:28:21;67841.13;;;3.65;92.66
6859;BME280;3468;42.824;23.240;2024-02-15T02:30:48;67862.09;;;3.68;93.07
6859;BME280;3468;42.824;23.240;2024-02-15T02:33:15;67775.78;;;3.15;92.87
6859;BME280;3468;42.824;23.240;2024-02-15T02:35:44;67820.44;;;3.70;93.24
6859;BME280;3468;42.824;23.240;2024-02-15T02:38:12;67813.88;;;3.73;93.17
6859;BME280;3468;42.824;23.240;2024-02-15T02:40:40;67814.31;;;3.69;93.77
6859;BME280;3468;42.824;23.240;2024-02-15T02:43:08;67860.38;;;3.66;93.23
6859;BME280;3468;42.824;23.240;2024-02-15T02:45:35;67813.56;;;3.30;93.77
6859;BME280;3468;42.824;23.240;2024-02-15T02:48:01;67800.84;;;3.67;93.23
6859;BME280;3468;42.824;23.240;2024-02-15T02:50:28;67834.06;;;3.61;92.89
6859;BME280;3468;42.824;23.240;2024-02-15T02:52:55;67855.63;;;3.58;93.25
6859;BME280;3468;42.824;23.240;2024-02-15T02:55:22;67863.16;;;3.58;93.00
6859;BME280;3468;42.824;23.240;2024-02-15T02:57:49;67839.47;;;3.57;94.11
6859;BME280;3468;42.824;23.240;2024-02-15T03:00:18;67818.31;;;3.56;92.98
6859;BME280;3468;42.824;23.240;2024-02-15T03:02:45;67830.59;;;3.58;93.10
6859;BME280;3468;42.824;23.240;2024-02-15T03:05:13;67832.91;;;3.60;91.50
6859;BME280;3468;42.824;23.240;2024-02-15T03:07:40;67802.41;;;3.64;91.62
6859;BME280;3468;42.824;23.240;2024-02-15T03:10:08;67837.91;;;3.60;92.46
6859;BME280;3468;42.824;23.240;2024-02-15T03:12:35;67879.44;;;3.22;93.01
6859;BME280;3468;42.824;23.240;2024-02-15T03:15:02;67824.44;;;3.57;93.44
6859;BME280;3468;42.824;23.240;2024-02-15T03:17:30;67794.63;;;3.55;92.79
6859;BME280;3468;42.824;23.240;2024-02-15T03:19:57;67801.25;;;3.11;93.61
6859;BME280;3468;42.824;23.240;2024-02-15T03:22:25;67833.53;;;3.54;93.86
6859;BME280;3468;42.824;23.240;2024-02-15T03:24:52;67812.13;;;3.37;94.31
6859;BME280;3468;42.824;23.240;2024-02-15T03:27:19;67785.28;;;3.49;94.58
6859;BME280;3468;42.824;23.240;2024-02-15T03:29:48;67939.91;;;3.18;93.83
6859;BME280;3468;42.824;23.240;2024-02-15T03:32:15;67837.16;;;3.37;94.07
6859;BME280;3468;42.824;23.240;2024-02-15T03:34:43;67806.66;;;3.48;95.19
6859;BME280;3468;42.824;23.240;2024-02-15T03:37:10;67813.81;;;3.45;95.76
6859;BME280;3468;42.824;23.240;2024-02-15T03:39:37;67730.31;;;2.67;96.22
6859;BME280;3468;42.824;23.240;2024-02-15T03:42:04;67804.47;;;3.33;95.54
6859;BME280;3468;42.824;23.240;2024-02-15T03:44:31;67807.28;;;3.42;93.89
6859;BME280;3468;42.824;23.240;2024-02-15T03:46:58;67805.91;;;3.43;94.36
6859;BME280;3468;42.824;23.240;2024-02-15T03:49:25;67820.72;;;3.45;94.48
6859;BME280;3468;42.824;23.240;2024-02-15T03:51:53;67806.84;;;3.46;93.71
6859;BME280;3468;42.824;23.240;2024-02-15T03:54:20;67815.72;;;3.45;94.22
6859;BME280;3468;42.824;23.240;2024-02-15T03:56:49;67804.97;;;3.40;94.88
6859;BME280;3468;42.824;23.240;2024-02-15T03:59:18;67767.50;;;2.99;95.36
6859;BME280;3468;42.824;23.240;2024-02-15T04:01:50;67769.09;;;3.30;95.45
6859;BME280;3468;42.824;23.240;2024-02-15T04:04:17;67794.56;;;3.27;97.20
6859;BME280;3468;42.824;23.240;2024-02-15T04:06:46;67810.53;;;3.23;97.71
6859;BME280;3468;42.824;23.240;2024-02-15T04:09:14;67722.19;;;2.73;98.16
6859;BME280;3468;42.824;23.240;2024-02-15T04:11:42;67831.19;;;3.17;98.03
6859;BME280;3468;42.824;23.240;2024-02-15T04:14:09;67733.22;;;2.46;97.35
6859;BME280;3468;42.824;23.240;2024-02-15T04:16:36;67811.81;;;3.11;98.04
6859;BME280;3468;42.824;23.240;2024-02-15T04:19:03;67771.38;;;3.15;99.05
6859;BME280;3468;42.824;23.240;2024-02-15T04:21:30;67795.28;;;3.08;99.59
6859;BME280;3468;42.824;23.240;2024-02-15T04:23:56;67810.13;;;3.10;99.46
6859;BME280;3468;42.824;23.240;2024-02-15T04:26:25;67773.16;;;3.10;99.08
6859;BME280;3468;42.824;23.240;2024-02-15T04:28:52;67799.53;;;3.09;98.89
6859;BME280;3468;42.824;23.240;2024-02-15T04:31:19;67766.66;;;3.07;96.56
6859;BME280;3468;42.824;23.240;2024-02-15T04:33:52;67780.66;;;3.10;94.92
6859;BME280;3468;42.824;23.240;2024-02-15T04:36:19;67780.28;;;3.08;94.93
6859;BME280;3468;42.824;23.240;2024-02-15T04:38:49;67772.16;;;3.14;93.91
6859;BME280;3468;42.824;23.240;2024-02-15T04:41:16;67761.72;;;3.18;94.30
6859;BME280;3468;42.824;23.240;2024-02-15T04:43:47;67799.25;;;3.18;93.67
6859;BME280;3468;42.824;23.240;2024-02-15T04:46:14;67822.13;;;3.20;93.25
6859;BME280;3468;42.824;23.240;2024-02-15T04:48:40;67819.41;;;3.22;94.07
6859;BME280;3468;42.824;23.240;2024-02-15T04:51:08;67833.47;;;3.19;94.17
6859;BME280;3468;42.824;23.240;2024-02-15T04:53:35;67767.28;;;3.01;93.66
6859;BME280;3468;42.824;23.240;2024-02-15T04:56:04;67742.06;;;2.62;94.22
6859;BME280;3468;42.824;23.240;2024-02-15T04:58:36;67820.28;;;3.31;95.66
6859;BME280;3468;42.824;23.240;2024-02-15T05:01:12;67811.22;;;3.34;98.46
6859;BME280;3468;42.824;23.240;2024-02-15T05:03:39;67806.69;;;3.24;97.97
6859;BME280;3468;42.824;23.240;2024-02-15T05:06:06;67784.81;;;3.18;98.27
6859;BME280;3468;42.824;23.240;2024-02-15T05:08:33;67717.31;;;2.77;98.85
6859;BME280;3468;42.824;23.240;2024-02-15T05:11:02;67751.66;;;3.07;100.00
6859;BME280;3468;42.824;23.240;2024-02-15T05:13:30;67773.44;;;3.02;100.00
6859;BME280;3468;42.824;23.240;2024-02-15T05:15:57;67803.50;;;2.95;100.00
6859;BME280;3468;42.824;23.240;2024-02-15T05:18:25;67767.56;;;2.92;100.00
6859;BME280;3468;42.824;23.240;2024-02-15T05:20:52;67774.69;;;2.90;100.00
6859;BME280;3468;42.824;23.240;2024-02-15T05:23:18;67776.63;;;2.89;100.00
6859;BME280;3468;42.824;23.240;2024-02-15T05:25:45;67761.81;;;2.87;100.00
6859;BME280;3468;42.824;23.240;2024-02-15T05:28:17;67745.31;;;2.84;100.00
6859;BME280;3468;42.824;23.240;2024-02-15T05:30:46;67790.53;;;2.82;100.00
6859;BME280;3468;42.824;23.240;2024-02-15T05:33:13;67747.47;;;2.82;99.69
6859;BME280;3468;42.824;23.240;2024-02-15T05:35:41;67755.53;;;2.82;98.74
6859;BME280;3468;42.824;23.240;2024-02-15T05:38:11;67774.91;;;2.88;100.00
6859;BME280;3468;42.824;23.240;2024-02-15T05:40:40;67768.16;;;2.69;100.00
6859;BME280;3468;42.824;23.240;2024-02-15T05:43:07;67784.75;;;2.84;100.00
6859;BME280;3468;42.824;23.240;2024-02-15T05:45:34;67735.91;;;2.85;100.00
6859;BME280;3468;42.824;23.240;2024-02-15T05:48:05;67744.19;;;2.83;100.00
6859;BME280;3468;42.824;23.240;2024-02-15T05:50:37;67760.41;;;2.78;100.00
6859;BME280;3468;42.824;23.240;2024-02-15T05:53:05;67764.03;;;2.79;100.00
6859;BME280;3468;42.824;23.240;2024-02-15T05:55:33;67731.03;;;2.72;100.00
6859;BME280;3468;42.824;23.240;2024-02-15T05:58:02;67790.91;;;2.85;100.00
6859;BME280;3468;42.824;23.240;2024-02-15T06:00:29;67808.91;;;3.15;100.00
6859;BME280;3468;42.824;23.240;2024-02-15T06:02:56;67802.69;;;3.55;99.16
6859;BME280;3468;42.824;23.240;2024-02-15T06:05:23;67835.13;;;3.68;96.13
6859;BME280;3468;42.824;23.240;2024-02-15T06:07:49;67831.06;;;3.71;93.95
6859;BME280;3468;42.824;23.240;2024-02-15T06:10:17;67806.56;;;3.71;93.70
6859;BME280;3468;42.824;23.240;2024-02-15T06:12:44;67818.53;;;3.71;93.82
6859;BME280;3468;42.824;23.240;2024-02-15T06:15:11;67851.66;;;3.89;93.86
6859;BME280;3468;42.824;23.240;2024-02-15T06:17:40;67894.59;;;4.43;91.77
6859;BME280;3468;42.824;23.240;2024-02-15T06:20:11;67890.44;;;4.70;88.88
6859;BME280;3468;42.824;23.240;2024-02-15T06:22:39;67930.34;;;4.89;87.33
6859;BME280;3468;42.824;23.240;2024-02-15T06:25:06;67996.69;;;5.25;85.06
6859;BME280;3468;42.824;23.240;2024-02-15T06:27:35;68010.78;;;6.02;82.38
6859;BME280;3468;42.824;23.240;2024-02-15T06:30:06;68420.97;;;6.86;78.36
6859;BME280;3468;42.824;23.240;2024-02-15T06:32:51;68210.25;;;8.47;72.74
6859;BME280;3468;42.824;23.240;2024-02-15T06:35:31;68287.53;;;8.83;70.23
6859;BME280;3468;42.824;23.240;2024-02-15T06:38:15;68264.88;;;8.66;70.74
6859;BME280;3468;42.824;23.240;2024-02-15T06:41:00;68270.75;;;8.86;70.88
6859;BME280;3468;42.824;23.240;2024-02-15T06:43:28;68319.56;;;8.96;70.13
6859;BME280;3468;42.824;23.240;2024-02-15T06:45:54;68227.09;;;8.27;69.50
6859;BME280;3468;42.824;23.240;2024-02-15T06:48:21;68265.69;;;8.54;70.36
6859;BME280;3468;42.824;23.240;2024-02-15T06:50:48;68226.66;;;8.53;71.30
6859;BME280;3468;42.824;23.240;2024-02-15T06:53:15;68226.44;;;8.76;71.05
6859;BME280;3468;42.824;23.240;2024-02-15T06:55:42;68282.91;;;8.68;71.03
6859;BME280;3468;42.824;23.240;2024-02-15T06:58:10;68272.91;;;8.51;70.61
6859;BME280;3468;42.824;23.240;2024-02-15T07:00:39;68190.22;;;8.02;72.39
6859;BME280;3468;42.824;23.240;2024-02-15T07:03:06;68215.53;;;7.84;73.66
6859;BME280;3468;42.824;23.240;2024-02-15T07:05:33;68164.72;;;7.71;73.57
6859;BME280;3468;42.824;23.240;2024-02-15T07:08:04;68187.97;;;7.61;74.65
6859;BME280;3468;42.824;23.240;2024-02-15T07:10:37;68178.19;;;7.52;74.03
6859;BME280;3468;42.824;23.240;2024-02-15T07:13:03;68152.09;;;7.60;75.40
6859;BME280;3468;42.824;23.240;2024-02-15T07:15:31;68094.81;;;7.33;74.77
6859;BME280;3468;42.824;23.240;2024-02-15T07:17:59;68209.06;;;7.75;75.03
6859;BME280;3468;42.824;23.240;2024-02-15T07:20:26;68207.66;;;8.04;75.14
6859;BME280;3468;42.824;23.240;2024-02-15T07:22:54;68238.03;;;8.08;72.64
6859;BME280;3468;42.824;23.240;2024-02-15T07:25:23;68283.84;;;8.82;70.03
6859;BME280;3468;42.824;23.240;2024-02-15T07:27:50;68247.25;;;8.77;67.42
6859;BME280;3468;42.824;23.240;2024-02-15T07:30:23;68279.03;;;8.91;68.10
6859;BME280;3468;42.824;23.240;2024-02-15T07:32:52;68310.06;;;9.18;70.94
6859;BME280;3468;42.824;23.240;2024-02-15T07:35:20;68325.25;;;9.40;66.15
6859;BME280;3468;42.824;23.240;2024-02-15T07:37:53;68316.50;;;9.60;64.66
6859;BME280;3468;42.824;23.240;2024-02-15T07:40:23;68255.13;;;9.55;67.17
6859;BME280;3468;42.824;23.240;2024-02-15T07:42:56;68394.91;;;9.93;66.39
6859;BME280;3468;42.824;23.240;2024-02-15T07:45:23;68373.06;;;9.85;65.06
6859;BME280;3468;42.824;23.240;2024-02-15T07:47:49;68404.22;;;9.94;64.68
6859;BME280;3468;42.824;23.240;2024-02-15T07:50:17;68404.59;;;10.08;63.19
6859;BME280;3468;42.824;23.240;2024-02-15T07:52:49;68399.84;;;10.43;63.30
6859;BME280;3468;42.824;23.240;2024-02-15T07:55:16;68426.88;;;10.55;62.82
6859;BME280;3468;42.824;23.240;2024-02-15T07:57:43;68400.38;;;10.65;62.95
6859;BME280;3468;42.824;23.240;2024-02-15T08:00:12;68479.63;;;10.59;61.41
6859;BME280;3468;42.824;23.240;2024-02-15T08:02:41;68527.31;;;9.35;60.58
6859;BME280;3468;42.824;23.240;2024-02-15T08:05:09;68505.44;;;11.25;58.42
6859;BME280;3468;42.824;23.240;2024-02-15T08:07:37;68490.22;;;11.25;59.95
6859;BME280;3468;42.824;23.240;2024-02-15T08:10:07;68427.09;;;10.75;59.47
6859;BME280;3468;42.824;23.240;2024-02-15T08:12:39;68563.44;;;12.03;57.29
6859;BME280;3468;42.824;23.240;2024-02-15T08:15:07;68555.94;;;11.97;57.06
6859;BME280;3468;42.824;23.240;2024-02-15T08:17:38;68578.31;;;12.00;57.80
6859;BME280;3468;42.824;23.240;2024-02-15T08:20:07;68567.97;;;12.29;58.39
6859;BME280;3468;42.824;23.240;2024-02-15T08:22:34;68591.28;;;12.25;57.18
6859;BME280;3468;42.824;23.240;2024-02-15T08:25:18;68548.47;;;11.90;59.13
6859;BME280;3468;42.824;23.240;2024-02-15T08:28:05;68501.78;;;11.24;61.07
6859;BME280;3468;42.824;23.240;2024-02-15T08:30:33;68475.72;;;11.19;62.37
6859;BME280;3468;42.824;23.240;2024-02-15T08:33:00;68455.47;;;11.08;61.61
6859;BME280;3468;42.824;23.240;2024-02-15T08:35:27;68429.09;;;11.01;62.77
6859;BME280;3468;42.824;23.240;2024-02-15T08:37:54;68525.47;;;11.49;63.66
6859;BME280;3468;42.824;23.240;2024-02-15T08:40:22;68506.59;;;11.48;59.65
6859;BME280;3468;42.824;23.240;2024-02-15T08:42:50;68517.75;;;11.44;60.54
6859;BME280;3468;42.824;23.240;2024-02-15T08:45:17;68530.88;;;11.62;60.19
6859;BME280;3468;42.824;23.240;2024-02-15T08:47:45;68544.66;;;11.85;58.97
6859;BME280;3468;42.824;23.240;2024-02-15T08:50:12;68597.94;;;11.96;58.10
6859;BME280;3468;42.824;23.240;2024-02-15T08:52:40;68571.88;;;11.91;60.39
6859;BME280;3468;42.824;23.240;2024-02-15T08:55:09;68559.16;;;12.01;62.20
6859;BME280;3468;42.824;23.240;2024-02-15T08:57:41;68579.44;;;12.12;59.23
6859;BME280;3468;42.824;23.240;2024-02-15T09:00:10;68567.25;;;11.97;61.25
6859;BME280;3468;42.824;23.240;2024-02-15T09:02:42;68848.19;;;11.77;56.96
6859;BME280;3468;42.824;23.240;2024-02-15T09:05:09;68610.97;;;12.46;58.16
6859;BME280;3468;42.824;23.240;2024-02-15T09:07:38;68626.03;;;12.63;55.26
6859;BME280;3468;42.824;23.240;2024-02-15T09:10:07;68659.59;;;12.96;56.02
6859;BME280;3468;42.824;23.240;2024-02-15T09:12:35;68683.97;;;13.00;55.18
6859;BME280;3468;42.824;23.240;2024-02-15T09:15:07;68642.97;;;12.86;56.06
6859;BME280;3468;42.824;23.240;2024-02-15T09:17:34;68639.03;;;12.87;57.95
6859;BME280;3468;42.824;23.240;2024-02-15T09:20:06;68659.28;;;12.83;58.60
6859;BME280;3468;42.824;23.240;2024-02-15T09:22:33;68659.59;;;12.96;56.18
6859;BME280;3468;42.824;23.240;2024-02-15T09:25:01;68657.22;;;13.05;56.69
6859;BME280;3468;42.824;23.240;2024-02-15T09:27:28;68678.34;;;13.15;55.76
6859;BME280;3468;42.824;23.240;2024-02-15T09:29:55;68677.50;;;13.27;53.77
6859;BME280;3468;42.824;23.240;2024-02-15T09:32:23;68704.59;;;13.13;55.28
6859;BME280;3468;42.824;23.240;2024-02-15T09:34:50;68615.16;;;13.06;54.83
6859;BME280;3468;42.824;23.240;2024-02-15T09:37:16;68642.16;;;13.14;54.69
6859;BME280;3468;42.824;23.240;2024-02-15T09:39:43;68629.16;;;13.01;57.32
6859;BME280;3468;42.824;23.240;2024-02-15T09:42:11;68693.94;;;13.17;55.04
6859;BME280;3468;42.824;23.240;2024-02-15T09:44:38;68704.97;;;13.42;56.38
6859;BME280;3468;42.824;23.240;2024-02-15T09:47:06;68708.84;;;13.52;53.79
6859;BME280;3468;42.824;23.240;2024-02-15T09:49:36;68692.63;;;13.33;55.20
6859;BME280;3468;42.824;23.240;2024-02-15T09:52:06;68756.00;;;13.62;53.89
6859;BME280;3468;42.824;23.240;2024-02-15T09:54:39;68704.34;;;13.52;52.39
6859;BME280;3468;42.824;23.240;2024-02-15T09:57:06;68601.09;;;12.96;52.52
6859;BME280;3468;42.824;23.240;2024-02-15T09:59:33;68638.28;;;13.04;54.39
6859;BME280;3468;42.824;23.240;2024-02-15T10:02:01;68888.22;;;12.16;52.75
6859;BME280;3468;42.824;23.240;2024-02-15T10:04:28;68706.59;;;13.39;51.66
6859;BME280;3468;42.824;23.240;2024-02-15T10:06:56;68498.38;;;12.21;51.84
6859;BME280;3468;42.824;23.240;2024-02-15T10:09:25;68591.22;;;12.83;52.04
6859;BME280;3468;42.824;23.240;2024-02-15T10:11:56;68678.63;;;13.28;53.35
6859;BME280;3468;42.824;23.240;2024-02-15T10:14:23;68733.81;;;13.56;51.52
6859;BME280;3468;42.824;23.240;2024-02-15T10:16:51;68697.28;;;13.94;51.12
6859;BME280;3468;42.824;23.240;2024-02-15T10:19:19;68508.66;;;13.85;50.16
6859;BME280;3468;42.824;23.240;2024-02-15T10:21:51;68677.06;;;13.46;50.51
6859;BME280;3468;42.824;23.240;2024-02-15T10:24:22;68669.38;;;13.31;51.85
6859;BME280;3468;42.824;23.240;2024-02-15T10:26:50;68689.88;;;13.51;51.25
6859;BME280;3468;42.824;23.240;2024-02-15T10:29:18;68641.63;;;13.29;51.38
6859;BME280;3468;42.824;23.240;2024-02-15T10:31:55;68665.53;;;13.36;52.63
6859;BME280;3468;42.824;23.240;2024-02-15T10:34:24;68712.28;;;13.55;51.36
6859;BME280;3468;42.824;23.240;2024-02-15T10:36:52;68719.13;;;13.56;50.27
6859;BME280;3468;42.824;23.240;2024-02-15T10:39:23;68699.13;;;13.48;52.02
6859;BME280;3468;42.824;23.240;2024-02-15T10:41:51;68749.47;;;13.73;50.19
6859;BME280;3468;42.824;23.240;2024-02-15T10:44:21;68647.91;;;13.19;51.41
6859;BME280;3468;42.824;23.240;2024-02-15T10:46:49;68766.13;;;14.09;51.16
6859;BME280;3468;42.824;23.240;2024-02-15T10:49:19;68742.47;;;13.89;48.47
6859;BME280;3468;42.824;23.240;2024-02-15T10:51:50;68796.47;;;14.53;49.50
6859;BME280;3468;42.824;23.240;2024-02-15T10:54:26;68841.53;;;14.81;50.05
6859;BME280;3468;42.824;23.240;2024-02-15T10:57:03;68813.66;;;14.63;48.71
6859;BME280;3468;42.824;23.240;2024-02-15T10:59:32;68816.16;;;14.74;48.87
6859;BME280;3468;42.824;23.240;2024-02-15T11:02:08;68825.13;;;14.43;49.29
6859;BME280;3468;42.824;23.240;2024-02-15T11:04:41;68709.69;;;13.39;50.54
6859;BME280;3468;42.824;23.240;2024-02-15T11:07:10;68744.13;;;14.02;49.88
6859;BME280;3468;42.824;23.240;2024-02-15T11:09:39;68754.38;;;14.17;51.78
6859;BME280;3468;42.824;23.240;2024-02-15T11:12:06;68780.00;;;14.37;49.88
6859;BME280;3468;42.824;23.240;2024-02-15T11:14:34;68795.88;;;14.52;50.10
6859;BME280;3468;42.824;23.240;2024-02-15T11:17:02;68803.00;;;14.67;48.24
6859;BME280;3468;42.824;23.240;2024-02-15T11:19:40;68788.72;;;14.48;47.81
6859;BME280;3468;42.824;23.240;2024-02-15T11:22:10;68833.88;;;14.81;49.10
6859;BME280;3468;42.824;23.240;2024-02-15T11:24:47;68781.50;;;14.55;50.25
6859;BME280;3468;42.824;23.240;2024-02-15T11:27:24;68747.66;;;14.20;46.44
6859;BME280;3468;42.824;23.240;2024-02-15T11:29:53;68667.94;;;13.84;47.67
6859;BME280;3468;42.824;23.240;2024-02-15T11:32:38;68808.78;;;15.03;48.81
6859;BME280;3468;42.824;23.240;2024-02-15T11:35:06;69001.56;;;14.06;45.76
6859;BME280;3468;42.824;23.240;2024-02-15T11:37:57;68615.41;;;14.33;47.32
6859;BME280;3468;42.824;23.240;2024-02-15T11:41:02;68805.59;;;14.56;49.06
6859;BME280;3468;42.824;23.240;2024-02-15T11:43:50;68897.34;;;14.67;47.28
6859;BME280;3468;42.824;23.240;2024-02-15T11:46:25;68830.97;;;14.78;48.36
6859;BME280;3468;42.824;23.240;2024-02-15T11:48:55;68855.13;;;15.10;48.51
6859;BME280;3468;42.824;23.240;2024-02-15T11:51:34;68799.56;;;14.95;47.43
6859;BME280;3468;42.824;23.240;2024-02-15T11:54:08;68883.84;;;15.41;45.71
6859;BME280;3468;42.824;23.240;2024-02-15T11:56:54;68938.66;;;15.88;46.10
6859;BME280;3468;42.824;23.240;2024-02-15T11:59:31;68882.28;;;15.48;47.11
6859;BME280;3468;42.824;23.240;2024-02-15T12:02:08;68796.91;;;14.75;47.00
6859;BME280;3468;42.824;23.240;2024-02-15T12:04:53;68844.38;;;15.09;47.96
6859;BME280;3468;42.824;23.240;2024-02-15T12:07:37;68818.50;;;14.50;47.05
6859;BME280;3468;42.824;23.240;2024-02-15T12:10:32;68738.44;;;13.60;50.19
6859;BME280;3468;42.824;23.240;2024-02-15T12:13:19;68650.31;;;12.99;51.06
6859;BME280;3468;42.824;23.240;2024-02-15T12:16:04;68559.84;;;12.06;56.26
6859;BME280;3468;42.824;23.240;2024-02-15T12:18:48;68432.72;;;11.71;54.54
6859;BME280;3468;42.824;23.240;2024-02-15T12:21:19;68616.56;;;12.31;54.14
6859;BME280;3468;42.824;23.240;2024-02-15T12:23:48;68491.16;;;11.76;53.09
6859;BME280;3468;42.824;23.240;2024-02-15T12:26:18;68624.53;;;12.71;52.78
6859;BME280;3468;42.824;23.240;2024-02-15T12:28:51;68699.38;;;13.46;52.05
6859;BME280;3468;42.824;23.240;2024-02-15T12:31:20;68708.16;;;13.73;50.03
6859;BME280;3468;42.824;23.240;2024-02-15T12:33:47;68742.75;;;13.76;52.01
6859;BME280;3468;42.824;23.240;2024-02-15T12:36:26;68675.13;;;13.36;50.38
6859;BME280;3468;42.824;23.240;2024-02-15T12:38:59;68666.03;;;13.06;51.01
6859;BME280;3468;42.824;23.240;2024-02-15T12:41:25;68631.13;;;12.63;51.34
6859;BME280;3468;42.824;23.240;2024-02-15T12:43:53;68545.06;;;12.02;53.31
6859;BME280;3468;42.824;23.240;2024-02-15T12:46:22;68494.66;;;11.68;53.31
6859;BME280;3468;42.824;23.240;2024-02-15T12:48:49;68521.25;;;11.47;54.30
6859;BME280;3468;42.824;23.240;2024-02-15T12:51:18;68497.00;;;11.48;56.40
6859;BME280;3468;42.824;23.240;2024-02-15T12:53:46;68497.91;;;11.40;57.22
6859;BME280;3468;42.824;23.240;2024-02-15T12:56:20;68524.44;;;11.52;56.96
6859;BME280;3468;42.824;23.240;2024-02-15T12:58:47;68516.56;;;11.65;56.35
6859;BME280;3468;42.824;23.240;2024-02-15T13:01:15;68502.94;;;11.73;53.89
6859;BME280;3468;42.824;23.240;2024-02-15T13:03:42;68547.81;;;11.74;56.62
6859;BME280;3468;42.824;23.240;2024-02-15T13:06:08;68530.38;;;11.77;54.82
6859;BME280;3468;42.824;23.240;2024-02-15T13:08:35;68552.72;;;11.92;55.30
6859;BME280;3468;42.824;23.240;2024-02-15T13:11:02;68542.53;;;12.02;56.53
6859;BME280;3468;42.824;23.240;2024-02-15T13:13:30;68549.47;;;11.97;54.89
6859;BME280;3468;42.824;23.240;2024-02-15T13:15:56;68530.38;;;12.14;54.61
6859;BME280;3468;42.824;23.240;2024-02-15T13:18:24;68551.75;;;12.10;54.16
6859;BME280;3468;42.824;23.240;2024-02-15T13:20:53;68542.34;;;11.94;54.31
6859;BME280;3468;42.824;23.240;2024-02-15T13:23:20;68532.22;;;11.83;54.17
6859;BME280;3468;42.824;23.240;2024-02-15T13:25:51;68540.06;;;11.81;54.80
6859;BME280;3468;42.824;23.240;2024-02-15T13:28:18;68555.19;;;11.76;54.47